sensor_id;sensor_type;location;lat;lon;timestamp;P1;durP1;ratioP1;P2;durP2;ratioP2
7665;SDS011;3875;46.562;4.898;2023-11-18T00:01:23;478.47;;;331.47;;
7665;SDS011;3875;46.562;4.898;2023-11-18T00:03:49;472.47;;;337.47;;
7665;SDS011;3875;46.562;4.898;2023-11-18T00:06:14;476.80;;;327.13;;
7665;SDS011;3875;46.562;4.898;2023-11-18T00:08:40;464.63;;;321.50;;
7665;SDS011;3875;46.562;4.898;2023-11-18T00:11:05;462.50;;;328.47;;
7665;SDS011;3875;46.562;4.898;2023-11-18T00:13:31;467.47;;;326.63;;
7665;SDS011;3875;46.562;4.898;2023-11-18T00:15:57;466.37;;;323.37;;
7665;SDS011;3875;46.562;4.898;2023-11-18T00:18:23;465.40;;;332.03;;
7665;SDS011;3875;46.562;4.898;2023-11-18T00:20:49;465.60;;;328.27;;
7665;SDS011;3875;46.562;4.898;2023-11-18T00:23:16;458.10;;;334.40;;
7665;SDS011;3875;46.562;4.898;2023-11-18T00:25:42;464.67;;;335.47;;
7665;SDS011;3875;46.562;4.898;2023-11-18T00:28:10;452.77;;;323.07;;
7665;SDS011;3875;46.562;4.898;2023-11-18T00:30:36;451.43;;;325.00;;
7665;SDS011;3875;46.562;4.898;2023-11-18T00:33:02;454.13;;;332.03;;
7665;SDS011;3875;46.562;4.898;2023-11-18T00:35:28;453.00;;;329.27;;
7665;SDS011;3875;46.562;4.898;2023-11-18T00:37:58;452.87;;;339.93;;
7665;SDS011;3875;46.562;4.898;2023-11-18T00:40:24;449.33;;;332.70;;
7665;SDS011;3875;46.562;4.898;2023-11-18T00:42:50;441.00;;;329.70;;
7665;SDS011;3875;46.562;4.898;2023-11-18T00:45:16;434.40;;;313.43;;
7665;SDS011;3875;46.562;4.898;2023-11-18T00:47:42;433.50;;;312.00;;
7665;SDS011;3875;46.562;4.898;2023-11-18T00:50:08;453.03;;;340.50;;
7665;SDS011;3875;46.562;4.898;2023-11-18T00:52:34;438.13;;;316.23;;
7665;SDS011;3875;46.562;4.898;2023-11-18T00:55:00;443.17;;;330.70;;
7665;SDS011;3875;46.562;4.898;2023-11-18T00:57:26;437.17;;;329.30;;
7665;SDS011;3875;46.562;4.898;2023-11-18T00:59:52;435.30;;;330.17;;
7665;SDS011;3875;46.562;4.898;2023-11-18T01:02:17;434.43;;;322.60;;
7665;SDS011;3875;46.562;4.898;2023-11-18T01:04:43;435.00;;;326.03;;
7665;SDS011;3875;46.562;4.898;2023-11-18T01:07:11;425.50;;;316.13;;
7665;SDS011;3875;46.562;4.898;2023-11-18T01:09:37;443.70;;;330.53;;
7665;SDS011;3875;46.562;4.898;2023-11-18T01:12:04;440.60;;;326.27;;
7665;SDS011;3875;46.562;4.898;2023-11-18T01:14:30;443.00;;;337.37;;
7665;SDS011;3875;46.562;4.898;2023-11-18T01:16:56;430.87;;;315.80;;
7665;SDS011;3875;46.562;4.898;2023-11-18T01:19:22;429.30;;;308.33;;
7665;SDS011;3875;46.562;4.898;2023-11-18T01:21:48;443.20;;;329.00;;
7665;SDS011;3875;46.562;4.898;2023-11-18T01:24:14;439.67;;;330.50;;
7665;SDS011;3875;46.562;4.898;2023-11-18T01:26:44;429.70;;;326.17;;
7665;SDS011;3875;46.562;4.898;2023-11-18T01:29:10;412.43;;;312.33;;
7665;SDS011;3875;46.562;4.898;2023-11-18T01:31:36;416.90;;;334.97;;
7665;SDS011;3875;46.562;4.898;2023-11-18T01:34:01;408.83;;;332.57;;
7665;SDS011;3875;46.562;4.898;2023-11-18T01:36:29;439.77;;;332.57;;
7665;SDS011;3875;46.562;4.898;2023-11-18T01:38:55;426.43;;;306.63;;
7665;SDS011;3875;46.562;4.898;2023-11-18T01:41:21;418.70;;;325.87;;
7665;SDS011;3875;46.562;4.898;2023-11-18T01:43:47;428.50;;;327.80;;
7665;SDS011;3875;46.562;4.898;2023-11-18T01:46:13;441.73;;;347.77;;
7665;SDS011;3875;46.562;4.898;2023-11-18T01:48:41;429.00;;;327.77;;
7665;SDS011;3875;46.562;4.898;2023-11-18T01:51:07;421.77;;;314.90;;
7665;SDS011;3875;46.562;4.898;2023-11-18T01:53:35;413.60;;;310.93;;
7665;SDS011;3875;46.562;4.898;2023-11-18T01:56:03;431.77;;;326.23;;
7665;SDS011;3875;46.562;4.898;2023-11-18T01:58:31;419.60;;;307.20;;
7665;SDS011;3875;46.562;4.898;2023-11-18T02:01:01;434.73;;;327.23;;
7665;SDS011;3875;46.562;4.898;2023-11-18T02:03:28;440.17;;;328.10;;
7665;SDS011;3875;46.562;4.898;2023-11-18T02:05:55;432.67;;;324.67;;
7665;SDS011;3875;46.562;4.898;2023-11-18T02:08:22;413.43;;;302.60;;
7665;SDS011;3875;46.562;4.898;2023-11-18T02:10:48;415.37;;;299.40;;
7665;SDS011;3875;46.562;4.898;2023-11-18T02:13:23;420.63;;;310.50;;
7665;SDS011;3875;46.562;4.898;2023-11-18T02:15:56;433.20;;;320.57;;
7665;SDS011;3875;46.562;4.898;2023-11-18T02:18:26;431.77;;;317.73;;
7665;SDS011;3875;46.562;4.898;2023-11-18T02:20:56;423.73;;;296.67;;
7665;SDS011;3875;46.562;4.898;2023-11-18T02:23:23;436.87;;;317.43;;
7665;SDS011;3875;46.562;4.898;2023-11-18T02:25:51;432.97;;;306.80;;
7665;SDS011;3875;46.562;4.898;2023-11-18T02:28:17;431.97;;;299.90;;
7665;SDS011;3875;46.562;4.898;2023-11-18T02:30:44;427.93;;;298.83;;
7665;SDS011;3875;46.562;4.898;2023-11-18T02:33:22;431.83;;;304.00;;
7665;SDS011;3875;46.562;4.898;2023-11-18T02:36:39;432.17;;;312.93;;
7665;SDS011;3875;46.562;4.898;2023-11-18T02:39:04;419.20;;;290.20;;
7665;SDS011;3875;46.562;4.898;2023-11-18T02:41:35;432.17;;;309.80;;
7665;SDS011;3875;46.562;4.898;2023-11-18T02:44:04;420.13;;;294.40;;
7665;SDS011;3875;46.562;4.898;2023-11-18T02:46:36;428.87;;;313.87;;
7665;SDS011;3875;46.562;4.898;2023-11-18T02:49:03;423.90;;;297.93;;
7665;SDS011;3875;46.562;4.898;2023-11-18T02:51:29;428.60;;;303.90;;
7665;SDS011;3875;46.562;4.898;2023-11-18T02:54:04;420.43;;;296.50;;
7665;SDS011;3875;46.562;4.898;2023-11-18T02:56:35;426.57;;;309.37;;
7665;SDS011;3875;46.562;4.898;2023-11-18T02:59:01;432.93;;;306.07;;
7665;SDS011;3875;46.562;4.898;2023-11-18T03:01:30;427.00;;;300.67;;
7665;SDS011;3875;46.562;4.898;2023-11-18T03:03:59;417.40;;;292.77;;
7665;SDS011;3875;46.562;4.898;2023-11-18T03:06:25;431.33;;;313.70;;
7665;SDS011;3875;46.562;4.898;2023-11-18T03:08:51;416.47;;;284.17;;
7665;SDS011;3875;46.562;4.898;2023-11-18T03:11:18;409.23;;;289.17;;
7665;SDS011;3875;46.562;4.898;2023-11-18T03:13:44;418.03;;;300.20;;
7665;SDS011;3875;46.562;4.898;2023-11-18T03:16:11;419.70;;;309.37;;
7665;SDS011;3875;46.562;4.898;2023-11-18T03:18:41;415.50;;;292.83;;
7665;SDS011;3875;46.562;4.898;2023-11-18T03:21:14;419.87;;;311.63;;
7665;SDS011;3875;46.562;4.898;2023-11-18T03:23:40;417.97;;;293.07;;
7665;SDS011;3875;46.562;4.898;2023-11-18T03:26:09;415.53;;;307.63;;
7665;SDS011;3875;46.562;4.898;2023-11-18T03:28:37;414.73;;;300.73;;
7665;SDS011;3875;46.562;4.898;2023-11-18T03:31:04;411.17;;;301.37;;
7665;SDS011;3875;46.562;4.898;2023-11-18T03:33:30;418.63;;;306.73;;
7665;SDS011;3875;46.562;4.898;2023-11-18T03:35:56;410.47;;;292.07;;
7665;SDS011;3875;46.562;4.898;2023-11-18T03:38:22;413.00;;;308.87;;
7665;SDS011;3875;46.562;4.898;2023-11-18T03:40:48;415.43;;;311.47;;
7665;SDS011;3875;46.562;4.898;2023-11-18T03:43:14;408.77;;;307.17;;
7665;SDS011;3875;46.562;4.898;2023-11-18T03:45:40;404.90;;;304.20;;
7665;SDS011;3875;46.562;4.898;2023-11-18T03:48:06;401.57;;;297.30;;
7665;SDS011;3875;46.562;4.898;2023-11-18T03:50:32;409.17;;;312.17;;
7665;SDS011;3875;46.562;4.898;2023-11-18T03:52:59;412.00;;;313.57;;
7665;SDS011;3875;46.562;4.898;2023-11-18T03:55:26;409.10;;;309.77;;
7665;SDS011;3875;46.562;4.898;2023-11-18T03:57:52;406.33;;;307.90;;
7665;SDS011;3875;46.562;4.898;2023-11-18T04:00:18;406.17;;;309.13;;
7665;SDS011;3875;46.562;4.898;2023-11-18T04:02:45;404.70;;;307.43;;
7665;SDS011;3875;46.562;4.898;2023-11-18T04:05:11;431.87;;;308.17;;
7665;SDS011;3875;46.562;4.898;2023-11-18T04:07:37;400.67;;;298.20;;
7665;SDS011;3875;46.562;4.898;2023-11-18T04:10:07;408.47;;;302.90;;
7665;SDS011;3875;46.562;4.898;2023-11-18T04:12:35;415.47;;;310.17;;
7665;SDS011;3875;46.562;4.898;2023-11-18T04:15:03;416.83;;;312.77;;
7665;SDS011;3875;46.562;4.898;2023-11-18T04:17:30;419.63;;;322.00;;
7665;SDS011;3875;46.562;4.898;2023-11-18T04:19:56;421.27;;;319.30;;
7665;SDS011;3875;46.562;4.898;2023-11-18T04:22:22;404.57;;;306.87;;
7665;SDS011;3875;46.562;4.898;2023-11-18T04:24:48;417.57;;;315.23;;
7665;SDS011;3875;46.562;4.898;2023-11-18T04:27:14;416.53;;;313.67;;
7665;SDS011;3875;46.562;4.898;2023-11-18T04:29:40;413.67;;;305.73;;
7665;SDS011;3875;46.562;4.898;2023-11-18T04:32:06;413.70;;;307.23;;
7665;SDS011;3875;46.562;4.898;2023-11-18T04:34:35;424.03;;;310.83;;
7665;SDS011;3875;46.562;4.898;2023-11-18T04:37:01;420.80;;;308.83;;
7665;SDS011;3875;46.562;4.898;2023-11-18T04:39:34;421.03;;;309.23;;
7665;SDS011;3875;46.562;4.898;2023-11-18T04:42:00;433.23;;;327.73;;
7665;SDS011;3875;46.562;4.898;2023-11-18T04:44:28;421.70;;;310.33;;
7665;SDS011;3875;46.562;4.898;2023-11-18T04:46:56;417.10;;;316.43;;
7665;SDS011;3875;46.562;4.898;2023-11-18T04:49:22;421.70;;;318.07;;
7665;SDS011;3875;46.562;4.898;2023-11-18T04:51:47;417.77;;;316.30;;
7665;SDS011;3875;46.562;4.898;2023-11-18T04:54:13;427.43;;;336.13;;
7665;SDS011;3875;46.562;4.898;2023-11-18T04:56:39;416.87;;;320.43;;
7665;SDS011;3875;46.562;4.898;2023-11-18T04:59:04;425.07;;;320.93;;
7665;SDS011;3875;46.562;4.898;2023-11-18T05:01:33;418.63;;;314.33;;
7665;SDS011;3875;46.562;4.898;2023-11-18T05:03:59;418.70;;;317.57;;
7665;SDS011;3875;46.562;4.898;2023-11-18T05:06:25;419.03;;;315.60;;
7665;SDS011;3875;46.562;4.898;2023-11-18T05:08:51;415.70;;;315.93;;
7665;SDS011;3875;46.562;4.898;2023-11-18T05:11:17;423.93;;;329.23;;
7665;SDS011;3875;46.562;4.898;2023-11-18T05:13:43;411.67;;;299.93;;
7665;SDS011;3875;46.562;4.898;2023-11-18T05:16:08;409.43;;;301.03;;
7665;SDS011;3875;46.562;4.898;2023-11-18T05:18:37;443.80;;;310.37;;
7665;SDS011;3875;46.562;4.898;2023-11-18T05:21:04;445.80;;;312.47;;
7665;SDS011;3875;46.562;4.898;2023-11-18T05:23:30;449.33;;;318.30;;
7665;SDS011;3875;46.562;4.898;2023-11-18T05:25:56;438.37;;;308.03;;
7665;SDS011;3875;46.562;4.898;2023-11-18T05:28:26;447.90;;;321.73;;
7665;SDS011;3875;46.562;4.898;2023-11-18T05:30:51;441.37;;;304.90;;
7665;SDS011;3875;46.562;4.898;2023-11-18T05:33:17;450.03;;;313.63;;
7665;SDS011;3875;46.562;4.898;2023-11-18T05:35:44;448.47;;;316.33;;
7665;SDS011;3875;46.562;4.898;2023-11-18T05:38:16;452.07;;;318.20;;
7665;SDS011;3875;46.562;4.898;2023-11-18T05:40:45;456.17;;;334.17;;
7665;SDS011;3875;46.562;4.898;2023-11-18T05:43:24;451.40;;;326.93;;
7665;SDS011;3875;46.562;4.898;2023-11-18T05:46:05;439.93;;;309.53;;
7665;SDS011;3875;46.562;4.898;2023-11-18T05:48:45;453.60;;;323.73;;
7665;SDS011;3875;46.562;4.898;2023-11-18T05:51:11;453.30;;;321.30;;
7665;SDS011;3875;46.562;4.898;2023-11-18T05:53:40;449.30;;;308.17;;
7665;SDS011;3875;46.562;4.898;2023-11-18T05:56:10;468.77;;;313.77;;
7665;SDS011;3875;46.562;4.898;2023-11-18T05:58:36;470.40;;;337.17;;
7665;SDS011;3875;46.562;4.898;2023-11-18T06:01:03;459.23;;;316.70;;
7665;SDS011;3875;46.562;4.898;2023-11-18T06:03:30;466.27;;;339.73;;
7665;SDS011;3875;46.562;4.898;2023-11-18T06:05:55;449.87;;;310.53;;
7665;SDS011;3875;46.562;4.898;2023-11-18T06:08:21;456.03;;;320.83;;
7665;SDS011;3875;46.562;4.898;2023-11-18T06:10:48;468.23;;;337.50;;
7665;SDS011;3875;46.562;4.898;2023-11-18T06:13:14;453.03;;;307.87;;
7665;SDS011;3875;46.562;4.898;2023-11-18T06:15:41;460.60;;;323.40;;
7665;SDS011;3875;46.562;4.898;2023-11-18T06:18:08;470.83;;;334.50;;
7665;SDS011;3875;46.562;4.898;2023-11-18T06:20:36;475.90;;;326.30;;
7665;SDS011;3875;46.562;4.898;2023-11-18T06:23:03;477.43;;;325.97;;
7665;SDS011;3875;46.562;4.898;2023-11-18T06:25:28;478.03;;;321.57;;
7665;SDS011;3875;46.562;4.898;2023-11-18T06:27:56;479.37;;;320.80;;
7665;SDS011;3875;46.562;4.898;2023-11-18T06:30:24;488.87;;;329.47;;
7665;SDS011;3875;46.562;4.898;2023-11-18T06:32:51;489.70;;;340.77;;
7665;SDS011;3875;46.562;4.898;2023-11-18T06:35:16;482.20;;;320.67;;
7665;SDS011;3875;46.562;4.898;2023-11-18T06:37:42;490.63;;;320.50;;
7665;SDS011;3875;46.562;4.898;2023-11-18T06:40:08;502.80;;;325.07;;
7665;SDS011;3875;46.562;4.898;2023-11-18T06:42:41;500.03;;;330.10;;
7665;SDS011;3875;46.562;4.898;2023-11-18T06:45:07;515.40;;;327.90;;
7665;SDS011;3875;46.562;4.898;2023-11-18T06:47:34;508.93;;;318.10;;
7665;SDS011;3875;46.562;4.898;2023-11-18T06:50:01;511.10;;;324.70;;
7665;SDS011;3875;46.562;4.898;2023-11-18T06:52:27;514.93;;;318.70;;
7665;SDS011;3875;46.562;4.898;2023-11-18T06:54:53;517.43;;;321.37;;
7665;SDS011;3875;46.562;4.898;2023-11-18T06:57:20;514.23;;;320.17;;
7665;SDS011;3875;46.562;4.898;2023-11-18T06:59:46;526.60;;;332.47;;
7665;SDS011;3875;46.562;4.898;2023-11-18T07:02:13;525.67;;;323.53;;
7665;SDS011;3875;46.562;4.898;2023-11-18T07:04:40;520.93;;;315.83;;
7665;SDS011;3875;46.562;4.898;2023-11-18T07:07:06;525.63;;;327.73;;
7665;SDS011;3875;46.562;4.898;2023-11-18T07:09:33;538.63;;;338.80;;
7665;SDS011;3875;46.562;4.898;2023-11-18T07:12:01;541.53;;;325.23;;
7665;SDS011;3875;46.562;4.898;2023-11-18T07:14:28;531.73;;;322.37;;
7665;SDS011;3875;46.562;4.898;2023-11-18T07:16:54;550.17;;;337.63;;
7665;SDS011;3875;46.562;4.898;2023-11-18T07:19:20;547.40;;;327.67;;
7665;SDS011;3875;46.562;4.898;2023-11-18T07:21:49;540.47;;;321.20;;
7665;SDS011;3875;46.562;4.898;2023-11-18T07:24:15;533.67;;;331.57;;
7665;SDS011;3875;46.562;4.898;2023-11-18T07:26:42;528.40;;;327.63;;
7665;SDS011;3875;46.562;4.898;2023-11-18T07:29:09;530.73;;;342.37;;
7665;SDS011;3875;46.562;4.898;2023-11-18T07:31:34;526.43;;;341.77;;
7665;SDS011;3875;46.562;4.898;2023-11-18T07:34:02;522.67;;;340.73;;
7665;SDS011;3875;46.562;4.898;2023-11-18T07:36:33;539.27;;;359.10;;
7665;SDS011;3875;46.562;4.898;2023-11-18T07:38:59;531.77;;;346.57;;
7665;SDS011;3875;46.562;4.898;2023-11-18T07:41:28;530.43;;;335.00;;
7665;SDS011;3875;46.562;4.898;2023-11-18T07:43:56;545.17;;;344.97;;
7665;SDS011;3875;46.562;4.898;2023-11-18T07:46:22;535.77;;;336.70;;
7665;SDS011;3875;46.562;4.898;2023-11-18T07:48:51;541.00;;;361.60;;
7665;SDS011;3875;46.562;4.898;2023-11-18T07:51:20;524.57;;;341.03;;
7665;SDS011;3875;46.562;4.898;2023-11-18T07:53:47;533.97;;;350.77;;
7665;SDS011;3875;46.562;4.898;2023-11-18T07:56:13;545.27;;;369.90;;
7665;SDS011;3875;46.562;4.898;2023-11-18T07:58:41;540.93;;;372.23;;
7665;SDS011;3875;46.562;4.898;2023-11-18T08:01:12;532.33;;;358.90;;
7665;SDS011;3875;46.562;4.898;2023-11-18T08:03:41;548.13;;;378.50;;
7665;SDS011;3875;46.562;4.898;2023-11-18T08:06:07;525.03;;;343.73;;
7665;SDS011;3875;46.562;4.898;2023-11-18T08:08:33;547.63;;;364.10;;
7665;SDS011;3875;46.562;4.898;2023-11-18T08:11:01;545.20;;;365.03;;
7665;SDS011;3875;46.562;4.898;2023-11-18T08:13:26;549.30;;;366.67;;
7665;SDS011;3875;46.562;4.898;2023-11-18T08:15:52;555.43;;;377.30;;
7665;SDS011;3875;46.562;4.898;2023-11-18T08:18:18;555.47;;;364.33;;
7665;SDS011;3875;46.562;4.898;2023-11-18T08:20:46;555.30;;;354.20;;
7665;SDS011;3875;46.562;4.898;2023-11-18T08:23:12;562.43;;;366.43;;
7665;SDS011;3875;46.562;4.898;2023-11-18T08:25:38;570.80;;;364.87;;
7665;SDS011;3875;46.562;4.898;2023-11-18T08:28:05;569.93;;;371.40;;
7665;SDS011;3875;46.562;4.898;2023-11-18T08:30:32;579.93;;;385.27;;
7665;SDS011;3875;46.562;4.898;2023-11-18T08:32:58;569.97;;;360.73;;
7665;SDS011;3875;46.562;4.898;2023-11-18T08:35:24;581.27;;;381.67;;
7665;SDS011;3875;46.562;4.898;2023-11-18T08:37:50;575.17;;;364.00;;
7665;SDS011;3875;46.562;4.898;2023-11-18T08:40:16;580.23;;;385.50;;
7665;SDS011;3875;46.562;4.898;2023-11-18T08:42:48;582.93;;;392.33;;
7665;SDS011;3875;46.562;4.898;2023-11-18T08:45:18;574.10;;;382.57;;
7665;SDS011;3875;46.562;4.898;2023-11-18T08:47:47;567.50;;;372.33;;
7665;SDS011;3875;46.562;4.898;2023-11-18T08:50:16;567.37;;;377.57;;
7665;SDS011;3875;46.562;4.898;2023-11-18T08:52:45;575.27;;;372.30;;
7665;SDS011;3875;46.562;4.898;2023-11-18T08:55:17;573.17;;;368.27;;
7665;SDS011;3875;46.562;4.898;2023-11-18T08:57:48;580.90;;;380.60;;
7665;SDS011;3875;46.562;4.898;2023-11-18T09:00:26;572.27;;;368.83;;
7665;SDS011;3875;46.562;4.898;2023-11-18T09:03:12;577.43;;;384.20;;
7665;SDS011;3875;46.562;4.898;2023-11-18T09:05:54;588.47;;;397.17;;
7665;SDS011;3875;46.562;4.898;2023-11-18T09:08:24;581.50;;;378.60;;
7665;SDS011;3875;46.562;4.898;2023-11-18T09:11:00;579.43;;;377.50;;
7665;SDS011;3875;46.562;4.898;2023-11-18T09:13:31;584.20;;;383.80;;
7665;SDS011;3875;46.562;4.898;2023-11-18T09:16:00;587.33;;;389.47;;
7665;SDS011;3875;46.562;4.898;2023-11-18T09:18:33;584.67;;;386.33;;
7665;SDS011;3875;46.562;4.898;2023-11-18T09:21:00;584.67;;;378.03;;
7665;SDS011;3875;46.562;4.898;2023-11-18T09:23:31;596.10;;;393.10;;
7665;SDS011;3875;46.562;4.898;2023-11-18T09:25:59;588.37;;;376.60;;
7665;SDS011;3875;46.562;4.898;2023-11-18T09:28:25;588.23;;;390.40;;
7665;SDS011;3875;46.562;4.898;2023-11-18T09:30:55;586.57;;;384.47;;
7665;SDS011;3875;46.562;4.898;2023-11-18T09:33:25;599.03;;;373.40;;
7665;SDS011;3875;46.562;4.898;2023-11-18T09:35:58;593.63;;;388.83;;
7665;SDS011;3875;46.562;4.898;2023-11-18T09:38:30;598.80;;;393.90;;
7665;SDS011;3875;46.562;4.898;2023-11-18T09:40:57;600.53;;;388.43;;
7665;SDS011;3875;46.562;4.898;2023-11-18T09:43:30;586.33;;;370.20;;
7665;SDS011;3875;46.562;4.898;2023-11-18T09:46:09;599.43;;;385.40;;
7665;SDS011;3875;46.562;4.898;2023-11-18T09:51:21;589.50;;;385.10;;
7665;SDS011;3875;46.562;4.898;2023-11-18T09:53:52;605.60;;;406.13;;
7665;SDS011;3875;46.562;4.898;2023-11-18T09:56:20;602.17;;;397.00;;
7665;SDS011;3875;46.562;4.898;2023-11-18T09:59:11;604.07;;;393.73;;
7665;SDS011;3875;46.562;4.898;2023-11-18T10:01:44;600.17;;;391.23;;
7665;SDS011;3875;46.562;4.898;2023-11-18T10:04:18;608.30;;;410.13;;
7665;SDS011;3875;46.562;4.898;2023-11-18T10:06:52;602.67;;;414.37;;
7665;SDS011;3875;46.562;4.898;2023-11-18T10:09:18;600.03;;;404.93;;
7665;SDS011;3875;46.562;4.898;2023-11-18T10:11:53;607.30;;;415.87;;
7665;SDS011;3875;46.562;4.898;2023-11-18T10:14:25;608.17;;;409.17;;
7665;SDS011;3875;46.562;4.898;2023-11-18T10:16:51;617.80;;;415.17;;
7665;SDS011;3875;46.562;4.898;2023-11-18T10:19:19;617.23;;;407.63;;
7665;SDS011;3875;46.562;4.898;2023-11-18T10:21:45;619.60;;;421.17;;
7665;SDS011;3875;46.562;4.898;2023-11-18T10:24:14;627.73;;;440.37;;
7665;SDS011;3875;46.562;4.898;2023-11-18T10:26:44;622.10;;;427.73;;
7665;SDS011;3875;46.562;4.898;2023-11-18T10:29:21;613.73;;;413.37;;
7665;SDS011;3875;46.562;4.898;2023-11-18T10:31:48;622.70;;;432.60;;
7665;SDS011;3875;46.562;4.898;2023-11-18T10:34:17;632.87;;;452.43;;
7665;SDS011;3875;46.562;4.898;2023-11-18T10:36:58;646.17;;;466.60;;
7665;SDS011;3875;46.562;4.898;2023-11-18T10:39:28;624.97;;;428.47;;
7665;SDS011;3875;46.562;4.898;2023-11-18T10:41:58;629.83;;;442.70;;
7665;SDS011;3875;46.562;4.898;2023-11-18T10:44:25;634.43;;;438.70;;
7665;SDS011;3875;46.562;4.898;2023-11-18T10:46:54;624.83;;;443.77;;
7665;SDS011;3875;46.562;4.898;2023-11-18T10:49:23;632.17;;;454.53;;
7665;SDS011;3875;46.562;4.898;2023-11-18T10:51:53;635.37;;;451.53;;
7665;SDS011;3875;46.562;4.898;2023-11-18T10:54:20;635.37;;;450.03;;
7665;SDS011;3875;46.562;4.898;2023-11-18T10:56:46;629.03;;;438.03;;
7665;SDS011;3875;46.562;4.898;2023-11-18T10:59:16;629.87;;;447.13;;
7665;SDS011;3875;46.562;4.898;2023-11-18T11:01:43;633.73;;;454.87;;
7665;SDS011;3875;46.562;4.898;2023-11-18T11:06:43;640.47;;;469.27;;
7665;SDS011;3875;46.562;4.898;2023-11-18T11:09:17;639.37;;;467.30;;
7665;SDS011;3875;46.562;4.898;2023-11-18T11:11:50;642.53;;;476.83;;
7665;SDS011;3875;46.562;4.898;2023-11-18T11:14:20;639.47;;;463.77;;
7665;SDS011;3875;46.562;4.898;2023-11-18T11:16:51;640.53;;;467.50;;
7665;SDS011;3875;46.562;4.898;2023-11-18T11:22:00;633.33;;;465.97;;
7665;SDS011;3875;46.562;4.898;2023-11-18T11:25:18;644.37;;;479.50;;
7665;SDS011;3875;46.562;4.898;2023-11-18T11:27:47;633.47;;;460.83;;
7665;SDS011;3875;46.562;4.898;2023-11-18T11:30:28;641.17;;;471.70;;
7665;SDS011;3875;46.562;4.898;2023-11-18T11:33:01;641.90;;;473.20;;
7665;SDS011;3875;46.562;4.898;2023-11-18T11:35:37;643.33;;;475.17;;
7665;SDS011;3875;46.562;4.898;2023-11-18T11:38:09;647.40;;;490.40;;
7665;SDS011;3875;46.562;4.898;2023-11-18T11:40:41;651.37;;;486.27;;
7665;SDS011;3875;46.562;4.898;2023-11-18T11:43:08;646.80;;;469.47;;
7665;SDS011;3875;46.562;4.898;2023-11-18T11:45:45;649.33;;;479.10;;
7665;SDS011;3875;46.562;4.898;2023-11-18T11:48:12;642.33;;;469.47;;
7665;SDS011;3875;46.562;4.898;2023-11-18T11:51:11;640.97;;;468.27;;
7665;SDS011;3875;46.562;4.898;2023-11-18T11:54:02;642.53;;;464.57;;
7665;SDS011;3875;46.562;4.898;2023-11-18T11:56:43;637.93;;;454.97;;
7665;SDS011;3875;46.562;4.898;2023-11-18T11:59:17;643.53;;;466.20;;
7665;SDS011;3875;46.562;4.898;2023-11-18T12:02:01;650.93;;;494.47;;
7665;SDS011;3875;46.562;4.898;2023-11-18T12:04:32;655.07;;;499.47;;
7665;SDS011;3875;46.562;4.898;2023-11-18T12:06:59;650.20;;;490.90;;
7665;SDS011;3875;46.562;4.898;2023-11-18T12:09:31;653.97;;;502.47;;
7665;SDS011;3875;46.562;4.898;2023-11-18T12:12:03;653.80;;;498.67;;
7665;SDS011;3875;46.562;4.898;2023-11-18T12:14:29;650.67;;;489.63;;
7665;SDS011;3875;46.562;4.898;2023-11-18T12:17:06;656.20;;;502.23;;
7665;SDS011;3875;46.562;4.898;2023-11-18T12:19:35;656.67;;;507.17;;
7665;SDS011;3875;46.562;4.898;2023-11-18T12:22:18;661.40;;;519.80;;
7665;SDS011;3875;46.562;4.898;2023-11-18T12:41:10;647.10;;;487.77;;
7665;SDS011;3875;46.562;4.898;2023-11-18T12:49:18;648.20;;;489.30;;
7665;SDS011;3875;46.562;4.898;2023-11-18T12:51:51;643.10;;;469.70;;
7665;SDS011;3875;46.562;4.898;2023-11-18T12:54:20;653.70;;;497.67;;
7665;SDS011;3875;46.562;4.898;2023-11-18T12:56:46;650.73;;;490.40;;
7665;SDS011;3875;46.562;4.898;2023-11-18T12:59:17;650.43;;;481.57;;
7665;SDS011;3875;46.562;4.898;2023-11-18T13:01:43;652.60;;;500.80;;
7665;SDS011;3875;46.562;4.898;2023-11-18T13:04:16;654.00;;;498.13;;
7665;SDS011;3875;46.562;4.898;2023-11-18T13:06:44;652.93;;;499.00;;
7665;SDS011;3875;46.562;4.898;2023-11-18T13:09:11;649.73;;;483.23;;
7665;SDS011;3875;46.562;4.898;2023-11-18T13:11:50;650.40;;;485.80;;
7665;SDS011;3875;46.562;4.898;2023-11-18T13:14:26;655.43;;;510.90;;
7665;SDS011;3875;46.562;4.898;2023-11-18T13:16:55;655.50;;;509.67;;
7665;SDS011;3875;46.562;4.898;2023-11-18T13:19:27;649.30;;;482.43;;
7665;SDS011;3875;46.562;4.898;2023-11-18T13:21:57;653.33;;;495.87;;
7665;SDS011;3875;46.562;4.898;2023-11-18T13:24:33;642.67;;;484.93;;
7665;SDS011;3875;46.562;4.898;2023-11-18T13:26:59;658.07;;;506.90;;
7665;SDS011;3875;46.562;4.898;2023-11-18T13:29:29;644.83;;;486.37;;
7665;SDS011;3875;46.562;4.898;2023-11-18T13:31:56;660.10;;;513.77;;
7665;SDS011;3875;46.562;4.898;2023-11-18T13:34:23;649.37;;;489.07;;
7665;SDS011;3875;46.562;4.898;2023-11-18T13:36:50;655.90;;;504.00;;
7665;SDS011;3875;46.562;4.898;2023-11-18T13:39:19;648.10;;;492.90;;
7665;SDS011;3875;46.562;4.898;2023-11-18T13:41:50;661.10;;;510.83;;
7665;SDS011;3875;46.562;4.898;2023-11-18T13:44:38;647.33;;;482.17;;
7665;SDS011;3875;46.562;4.898;2023-11-18T13:47:07;654.13;;;504.53;;
7665;SDS011;3875;46.562;4.898;2023-11-18T13:49:36;655.67;;;503.73;;
7665;SDS011;3875;46.562;4.898;2023-11-18T13:52:05;645.63;;;478.33;;
7665;SDS011;3875;46.562;4.898;2023-11-18T13:54:34;649.20;;;489.30;;
7665;SDS011;3875;46.562;4.898;2023-11-18T13:57:00;649.57;;;496.23;;
7665;SDS011;3875;46.562;4.898;2023-11-18T13:59:30;653.73;;;500.90;;
7665;SDS011;3875;46.562;4.898;2023-11-18T14:01:57;653.30;;;505.17;;
7665;SDS011;3875;46.562;4.898;2023-11-18T14:04:26;657.60;;;505.03;;
7665;SDS011;3875;46.562;4.898;2023-11-18T14:07:00;663.60;;;536.83;;
7665;SDS011;3875;46.562;4.898;2023-11-18T14:09:29;661.97;;;520.70;;
7665;SDS011;3875;46.562;4.898;2023-11-18T14:11:56;656.87;;;506.23;;
7665;SDS011;3875;46.562;4.898;2023-11-18T14:14:22;664.33;;;525.73;;
7665;SDS011;3875;46.562;4.898;2023-11-18T14:16:52;659.97;;;519.57;;
7665;SDS011;3875;46.562;4.898;2023-11-18T14:19:19;662.23;;;519.33;;
7665;SDS011;3875;46.562;4.898;2023-11-18T14:21:44;662.93;;;532.10;;
7665;SDS011;3875;46.562;4.898;2023-11-18T14:24:11;659.63;;;516.47;;
7665;SDS011;3875;46.562;4.898;2023-11-18T14:26:40;659.43;;;517.27;;
7665;SDS011;3875;46.562;4.898;2023-11-18T14:29:06;657.43;;;513.50;;
7665;SDS011;3875;46.562;4.898;2023-11-18T14:31:35;647.40;;;488.23;;
7665;SDS011;3875;46.562;4.898;2023-11-18T14:34:01;660.03;;;520.73;;
7665;SDS011;3875;46.562;4.898;2023-11-18T14:36:27;659.33;;;519.00;;
7665;SDS011;3875;46.562;4.898;2023-11-18T14:38:53;658.07;;;513.70;;
7665;SDS011;3875;46.562;4.898;2023-11-18T14:41:19;656.57;;;506.07;;
7665;SDS011;3875;46.562;4.898;2023-11-18T14:43:51;661.97;;;528.77;;
7665;SDS011;3875;46.562;4.898;2023-11-18T14:46:20;661.17;;;525.87;;
7665;SDS011;3875;46.562;4.898;2023-11-18T14:48:46;659.47;;;519.50;;
7665;SDS011;3875;46.562;4.898;2023-11-18T14:51:12;654.47;;;501.67;;
7665;SDS011;3875;46.562;4.898;2023-11-18T14:53:38;654.80;;;507.63;;
7665;SDS011;3875;46.562;4.898;2023-11-18T14:56:04;664.43;;;525.23;;
7665;SDS011;3875;46.562;4.898;2023-11-18T14:58:34;656.47;;;513.97;;
7665;SDS011;3875;46.562;4.898;2023-11-18T15:01:00;659.27;;;516.67;;